Time;durP1;ratioP1;P1;durP2;ratioP2;P2;SDS_P1;SDS_P2;PMS_P1;PMS_P2;Temp;Humidity;BMP_temperature;BMP_pressure;BME280_temperature;BME280_humidity;BME280_pressure;Samples;Min_cycle;Max_cycle;Signal;HPM_P1;HPM_P2
2022/09/05 00:01:38;;;;;;;2.47;2.27;;;22.30;93.70;;;;;;5013332;28;20450;-84
2022/09/05 00:04:11;;;;;;;2.70;2.50;;;22.20;93.90;;;;;;5025694;28;21879;-82
2022/09/05 00:07:01;;;;;;;2.93;2.60;;;22.20;94.10;;;;;;5009982;28;20960;-83
2022/09/05 00:09:55;;;;;;;2.30;2.10;;;22.10;94.00;;;;;;5022482;28;20505;-81
2022/09/05 00:12:24;;;;;;;2.60;2.40;;;22.10;94.20;;;;;;5022338;28;20433;-84
2022/09/05 00:15:04;;;;;;;2.50;2.30;;;22.10;94.30;;;;;;5005953;28;20465;-83
2022/09/05 00:18:05;;;;;;;2.60;2.40;;;22.00;94.50;;;;;;5008123;28;20513;-82
2022/09/05 00:21:12;;;;;;;2.63;2.43;;;22.10;94.50;;;;;;5010677;28;20438;-82
2022/09/05 00:24:08;;;;;;;3.47;3.03;;;22.20;94.40;;;;;;5010275;28;22033;-81
2022/09/05 00:27:16;;;;;;;3.37;2.23;;;22.10;94.50;;;;;;5011560;28;20532;-85
2022/09/05 00:30:02;;;;;;;3.00;2.43;;;22.20;94.70;;;;;;5026462;28;21532;-84
2022/09/05 00:33:14;;;;;;;2.87;2.67;;;22.30;94.30;;;;;;4994488;28;20481;-82
2022/09/05 00:36:16;;;;;;;2.70;1.93;;;22.10;94.30;;;;;;5005418;28;20541;-83
2022/09/05 00:39:00;;;;;;;2.30;2.20;;;22.00;94.50;;;;;;5012199;28;20477;-84
2022/09/05 00:41:28;;;;;;;2.23;2.13;;;22.10;94.50;;;;;;5013126;28;20878;-83
2022/09/05 00:43:56;;;;;;;2.50;2.30;;;21.90;95.00;;;;;;5012528;28;20451;-82
2022/09/05 00:46:28;;;;;;;3.23;3.03;;;22.00;94.90;;;;;;5026555;28;20473;-83
2022/09/05 00:49:20;;;;;;;2.67;2.33;;;22.10;94.50;;;;;;5009658;28;20470;-82
2022/09/05 00:51:59;;;;;;;3.20;2.87;;;22.10;94.40;;;;;;4998208;28;20720;-85
2022/09/05 00:54:55;;;;;;;2.70;2.50;;;22.00;94.60;;;;;;5009186;28;20454;-83
2022/09/05 00:57:59;;;;;;;3.03;2.73;;;22.10;94.70;;;;;;5008622;28;21371;-84
2022/09/05 01:00:32;;;;;;;2.63;2.43;;;22.20;94.40;;;;;;5009742;28;20449;-82
2022/09/05 01:03:45;;;;;;;2.57;2.37;;;22.20;94.10;;;;;;5014442;28;20569;-83
2022/09/05 01:06:19;;;;;;;2.60;2.40;;;22.20;94.30;;;;;;4988695;28;20482;-82
2022/09/05 01:09:15;;;;;;;2.97;2.77;;;22.00;94.80;;;;;;5006190;28;20485;-83
2022/09/05 01:11:57;;;;;;;2.73;2.53;;;21.90;95.10;;;;;;5015251;28;20459;-82
2022/09/05 01:14:52;;;;;;;3.23;2.10;;;22.00;95.10;;;;;;5022760;28;20505;-82
2022/09/05 01:17:34;;;;;;;3.00;2.80;;;22.00;94.90;;;;;;5007205;28;20826;-81
2022/09/05 01:20:13;;;;;;;2.90;2.70;;;21.90;94.80;;;;;;5008256;28;21353;-82
2022/09/05 01:23:04;;;;;;;3.20;2.67;;;21.90;95.10;;;;;;5007041;28;20869;-81
2022/09/05 01:26:28;;;;;;;2.60;2.40;;;21.80;95.50;;;;;;5009652;28;20517;-84
2022/09/05 01:29:16;;;;;;;2.77;2.57;;;21.80;95.10;;;;;;4983676;28;20798;-82
2022/09/05 01:32:09;;;;;;;2.40;2.30;;;21.90;94.90;;;;;;5005864;28;20854;-83
2022/09/05 01:34:52;;;;;;;2.70;2.50;;;21.70;95.10;;;;;;5011028;28;20545;-82
2022/09/05 01:37:37;;;;;;;2.77;2.57;;;21.70;95.30;;;;;;5009182;28;20453;-84
2022/09/05 01:40:19;;;;;;;3.00;2.70;;;21.70;95.50;;;;;;5010603;28;20464;-83
2022/09/05 01:43:12;;;;;;;2.97;2.77;;;21.70;95.60;;;;;;5010045;28;20470;-81
2022/09/05 01:45:57;;;;;;;2.50;2.30;;;21.70;95.70;;;;;;5010920;28;20470;-82
2022/09/05 01:49:08;;;;;;;2.50;2.30;;;21.70;95.70;;;;;;5027216;28;20476;-82
2022/09/05 01:52:12;;;;;;;2.50;2.33;;;21.70;95.70;;;;;;4951161;28;20484;-83
2022/09/05 01:54:45;;;;;;;2.80;2.60;;;21.70;95.70;;;;;;4972468;28;20496;-82
2022/09/05 01:57:38;;;;;;;2.83;2.63;;;21.90;95.60;;;;;;5017766;28;20494;-83
2022/09/05 02:00:29;;;;;;;2.30;2.20;;;21.80;95.40;;;;;;4998305;28;20469;-81
2022/09/05 02:03:23;;;;;;;2.90;2.70;;;21.80;95.70;;;;;;4995750;28;20886;-82
2022/09/05 02:06:16;;;;;;;2.87;2.67;;;22.00;95.50;;;;;;5005731;28;21907;-82
2022/09/05 02:09:04;;;;;;;2.60;2.40;;;21.90;95.90;;;;;;5005761;28;20497;-83
2022/09/05 02:11:57;;;;;;;2.70;2.50;;;21.70;96.10;;;;;;5009013;28;21098;-81
2022/09/05 02:14:43;;;;;;;3.13;2.83;;;21.70;95.80;;;;;;5008250;28;20472;-84
2022/09/05 02:17:19;;;;;;;3.10;2.90;;;21.80;96.00;;;;;;5007572;28;20816;-84
2022/09/05 02:20:09;;;;;;;3.27;2.97;;;21.70;95.80;;;;;;5009151;28;20460;-83
2022/09/05 02:22:43;;;;;;;3.10;2.90;;;21.50;95.90;;;;;;5009889;28;20454;-82
2022/09/05 02:25:42;;;;;;;2.90;2.70;;;21.40;96.10;;;;;;5009224;28;20493;-82
2022/09/05 02:28:51;;;;;;;3.07;2.70;;;21.30;96.40;;;;;;5004578;28;20502;-83
2022/09/05 02:31:27;;;;;;;4.20;2.67;;;21.30;96.40;;;;;;5007616;28;20457;-83
2022/09/05 02:34:06;;;;;;;3.70;3.40;;;21.20;96.50;;;;;;5011246;28;20442;-82
2022/09/05 02:36:50;;;;;;;3.37;3.07;;;21.20;96.40;;;;;;5006570;28;20454;-83
2022/09/05 02:39:44;;;;;;;2.30;2.20;;;21.10;96.60;;;;;;5009613;28;20489;-84
2022/09/05 02:42:43;;;;;;;3.00;2.80;;;21.10;96.70;;;;;;5008630;28;20505;-82
2022/09/05 02:45:42;;;;;;;3.30;3.10;;;21.10;97.00;;;;;;5009362;28;20482;-83
2022/09/05 02:48:17;;;;;;;2.80;2.60;;;21.10;96.70;;;;;;5007849;28;20488;-83
2022/09/05 02:51:16;;;;;;;3.23;3.03;;;21.10;97.00;;;;;;5009152;28;20442;-83
2022/09/05 02:54:09;;;;;;;5.50;2.73;;;21.10;96.80;;;;;;4997647;28;20466;-83
2022/09/05 02:57:11;;;;;;;3.07;2.87;;;21.10;96.90;;;;;;5008238;28;20450;-81
2022/09/05 03:00:24;;;;;;;3.00;2.80;;;21.00;96.80;;;;;;5007474;28;20499;-82
2022/09/05 03:03:11;;;;;;;3.10;2.90;;;21.10;96.80;;;;;;5023054;28;20485;-83
2022/09/05 03:05:59;;;;;;;6.13;3.27;;;21.10;96.60;;;;;;5009111;28;20485;-81
2022/09/05 03:08:43;;;;;;;3.03;2.83;;;21.00;96.60;;;;;;5008925;28;20987;-83
2022/09/05 03:11:25;;;;;;;2.77;2.57;;;20.90;97.00;;;;;;5008382;28;20450;-82
2022/09/05 03:14:17;;;;;;;3.00;2.67;;;20.90;97.50;;;;;;5008211;28;20459;-84
2022/09/05 03:17:02;;;;;;;3.70;3.23;;;21.00;97.30;;;;;;5008698;28;21353;-83
2022/09/05 03:19:46;;;;;;;3.57;3.37;;;20.80;97.40;;;;;;5009120;28;20553;-83
2022/09/05 03:22:43;;;;;;;4.93;3.37;;;20.80;97.50;;;;;;5009175;28;20476;-83
2022/09/05 03:25:44;;;;;;;3.37;3.07;;;20.90;97.50;;;;;;5020987;28;20486;-82
2022/09/05 03:28:47;;;;;;;3.03;2.83;;;20.80;97.50;;;;;;5009425;28;20485;-82
2022/09/05 03:31:38;;;;;;;2.83;2.63;;;21.10;97.10;;;;;;5009059;28;20516;-83
2022/09/05 03:34:20;;;;;;;3.30;2.90;;;20.90;96.90;;;;;;5011486;28;20454;-83
2022/09/05 03:37:03;;;;;;;2.90;2.70;;;20.80;97.00;;;;;;5009167;28;20524;-84
2022/09/05 03:39:44;;;;;;;3.60;2.77;;;20.70;97.20;;;;;;5010359;28;20473;-82
2022/09/05 03:42:17;;;;;;;2.73;2.53;;;20.60;97.50;;;;;;5012194;28;20450;-84
2022/09/05 03:44:47;;;;;;;2.90;2.70;;;20.60;97.80;;;;;;5012031;28;20928;-82
2022/09/05 03:48:07;;;;;;;3.53;3.23;;;20.60;98.00;;;;;;5009081;28;20454;-81
2022/09/05 03:51:20;;;;;;;3.07;2.80;;;20.70;97.70;;;;;;5015862;28;20927;-83
2022/09/05 03:54:38;;;;;;;3.43;3.13;;;20.60;97.80;;;;;;5013216;28;21151;-83
2022/09/05 03:57:52;;;;;;;3.17;2.97;;;20.60;97.80;;;;;;5012869;28;20450;-83
2022/09/05 04:00:20;;;;;;;3.00;2.80;;;20.60;98.00;;;;;;5012913;28;20446;-82
2022/09/05 04:03:09;;;;;;;3.40;3.10;;;20.70;97.90;;;;;;5013026;28;20466;-82
2022/09/05 04:06:14;;;;;;;4.00;3.60;;;20.60;97.90;;;;;;5012759;28;20478;-81
2022/09/05 04:09:25;;;;;;;5.83;2.97;;;20.70;97.90;;;;;;5027170;28;20480;-82
2022/09/05 04:12:16;;;;;;;3.43;3.10;;;20.70;97.70;;;;;;5022140;28;20454;-83
2022/09/05 04:14:55;;;;;;;3.23;2.83;;;20.70;97.80;;;;;;5022508;28;20463;-81
2022/09/05 04:17:45;;;;;;;3.23;3.03;;;20.40;98.30;;;;;;5004471;28;20497;-82
2022/09/05 04:20:42;;;;;;;4.10;3.13;;;20.40;98.60;;;;;;5007735;28;20451;-83
2022/09/05 04:23:23;;;;;;;3.03;2.83;;;20.40;98.80;;;;;;5007467;28;20458;-81
2022/09/05 04:26:02;;;;;;;3.33;3.10;;;20.40;98.80;;;;;;5023323;28;20466;-81
2022/09/05 04:29:19;;;;;;;3.53;3.23;;;20.40;98.90;;;;;;5008742;28;20482;-80
2022/09/05 04:32:17;;;;;;;3.67;3.40;;;20.40;99.10;;;;;;5009698;28;20454;-83
2022/09/05 04:35:08;;;;;;;4.17;3.30;;;20.50;98.80;;;;;;5008871;28;20828;-83
2022/09/05 04:37:57;;;;;;;3.60;3.30;;;20.50;98.80;;;;;;5012115;28;20478;-80
2022/09/05 04:40:47;;;;;;;3.80;3.50;;;20.60;98.40;;;;;;5018708;28;20462;-83
2022/09/05 04:43:17;;;;;;;4.60;3.93;;;20.40;98.50;;;;;;5008972;28;20998;-82
2022/09/05 04:45:53;;;;;;;3.70;3.50;;;20.40;98.70;;;;;;5008763;28;20485;-83
2022/09/05 04:48:27;;;;;;;3.50;3.30;;;20.30;98.90;;;;;;5007892;28;20829;-80
2022/09/05 04:51:05;;;;;;;5.80;3.50;;;20.10;99.20;;;;;;5010170;28;20891;-81
2022/09/05 04:53:43;;;;;;;3.17;2.97;;;20.20;99.30;;;;;;5011140;28;20465;-84
2022/09/05 04:56:18;;;;;;;4.10;2.93;;;20.30;99.20;;;;;;5024261;28;20520;-84
2022/09/05 04:58:54;;;;;;;3.07;2.87;;;20.20;99.00;;;;;;5007590;28;20488;-84
2022/09/05 05:01:52;;;;;;;4.17;3.33;;;20.10;99.30;;;;;;5009659;28;20462;-82
2022/09/05 05:04:39;;;;;;;5.27;3.67;;;20.20;99.30;;;;;;5008051;28;20520;-82
2022/09/05 05:07:32;;;;;;;6.47;3.50;;;20.30;99.30;;;;;;5017260;28;20470;-82
2022/09/05 05:10:01;;;;;;;7.27;3.83;;;20.30;99.10;;;;;;5008378;28;20458;-82
2022/09/05 05:12:37;;;;;;;4.80;4.10;;;20.30;99.00;;;;;;5008883;28;20965;-83
2022/09/05 05:15:27;;;;;;;5.40;4.90;;;20.30;99.30;;;;;;5008481;28;20451;-84
2022/09/05 05:18:40;;;;;;;6.00;4.90;;;20.20;99.40;;;;;;5007987;28;20494;-82
2022/09/05 05:21:29;;;;;;;5.60;4.73;;;20.30;99.10;;;;;;5006223;28;20455;-79
2022/09/05 05:24:10;;;;;;;6.90;6.20;;;20.40;99.00;;;;;;5005330;28;20786;-82
2022/09/05 05:27:00;;;;;;;8.13;6.73;;;20.50;98.90;;;;;;5005424;28;20489;-82
2022/09/05 05:29:56;;;;;;;10.00;6.57;;;20.50;98.60;;;;;;5027782;28;20519;-83
2022/09/05 05:32:26;;;;;;;9.87;6.10;;;20.50;98.70;;;;;;5012466;28;20456;-83
2022/09/05 05:35:10;;;;;;;9.20;5.40;;;20.30;98.80;;;;;;5013372;28;20500;-83
2022/09/05 05:37:44;;;;;;;4.90;4.37;;;20.30;99.10;;;;;;5014410;28;20474;-83
2022/09/05 05:40:14;;;;;;;9.40;5.13;;;20.30;99.00;;;;;;5014303;28;20468;-84
2022/09/05 05:42:43;;;;;;;6.27;4.80;;;20.20;99.10;;;;;;5014390;28;20462;-83
2022/09/05 05:45:19;;;;;;;4.70;4.13;;;20.40;98.70;;;;;;5016074;28;20457;-82
2022/09/05 05:47:51;;;;;;;4.93;3.63;;;20.50;98.60;;;;;;5024757;28;20465;-83
2022/09/05 05:50:36;;;;;;;4.43;3.73;;;20.40;98.60;;;;;;5014804;28;20446;-82
2022/09/05 05:53:28;;;;;;;5.10;4.40;;;20.30;98.80;;;;;;5011492;28;20438;-83
2022/09/05 05:56:34;;;;;;;5.87;4.63;;;20.50;99.10;;;;;;5012741;28;20449;-81
2022/09/05 05:59:27;;;;;;;4.60;4.10;;;20.80;98.40;;;;;;5015844;28;20492;-80
2022/09/05 06:02:22;;;;;;;6.37;4.13;;;21.00;97.70;;;;;;5016528;28;20453;-81
2022/09/05 06:05:06;;;;;;;6.27;4.40;;;20.70;97.90;;;;;;5015312;28;20442;-82
2022/09/05 06:07:51;;;;;;;4.67;4.23;;;22.60;96.40;;;;;;5015297;28;20494;-82
2022/09/05 06:10:50;;;;;;;4.27;3.60;;;23.80;93.30;;;;;;5015756;28;20426;-84
2022/09/05 06:14:06;;;;;;;3.80;3.30;;;25.90;89.00;;;;;;5013019;28;20461;-83
2022/09/05 06:17:18;;;;;;;3.47;3.27;;;27.50;81.80;;;;;;5011033;28;20466;-83
2022/09/05 06:19:55;;;;;;;4.17;3.30;;;28.90;74.80;;;;;;5013642;28;20447;-86
2022/09/05 06:22:51;;;;;;;3.43;3.20;;;29.80;69.50;;;;;;5012315;28;20473;-82
2022/09/05 06:25:45;;;;;;;3.17;2.97;;;29.70;67.20;;;;;;5016649;28;20468;-84
2022/09/05 06:28:31;;;;;;;4.00;3.30;;;30.00;65.90;;;;;;5027050;28;20599;-82
2022/09/05 06:31:17;;;;;;;5.27;3.23;;;30.10;64.80;;;;;;5029791;28;20442;-83
2022/09/05 06:34:20;;;;;;;3.03;2.70;;;30.40;64.40;;;;;;5028665;28;20480;-83
2022/09/05 06:37:09;;;;;;;5.27;3.37;;;31.30;60.40;;;;;;5027730;28;20450;-82
2022/09/05 06:39:39;;;;;;;6.30;3.00;;;32.10;58.20;;;;;;5016728;28;20462;-82
2022/09/05 06:42:31;;;;;;;3.50;3.20;;;32.10;57.00;;;;;;5010459;28;20454;-83
2022/09/05 06:45:20;;;;;;;3.70;3.33;;;32.90;55.10;;;;;;5015490;28;20455;-83
2022/09/05 06:48:17;;;;;;;4.40;3.53;;;32.80;54.50;;;;;;5016364;28;20477;-83
2022/09/05 06:51:09;;;;;;;4.60;3.47;;;33.10;54.10;;;;;;5016904;28;20832;-82
2022/09/05 06:53:54;;;;;;;3.73;3.33;;;32.80;54.30;;;;;;5017102;28;20443;-83
2022/09/05 06:57:03;;;;;;;3.83;3.37;;;34.00;51.90;;;;;;5015296;28;20456;-83
2022/09/05 06:59:48;;;;;;;3.93;3.23;;;33.50;51.30;;;;;;5026038;28;20553;-83
2022/09/05 07:02:33;;;;;;;3.43;3.07;;;32.50;52.80;;;;;;5015121;28;20472;-83
2022/09/05 07:05:37;;;;;;;2.87;2.67;;;30.10;55.80;;;;;;5010607;28;20477;-82
2022/09/05 07:08:25;;;;;;;3.30;3.00;;;30.50;57.40;;;;;;5004228;28;20567;-84
2022/09/05 07:11:20;;;;;;;3.03;2.73;;;31.90;55.10;;;;;;5012279;28;20482;-83
2022/09/05 07:14:28;;;;;;;2.90;2.50;;;33.20;52.60;;;;;;5013542;28;20457;-84
2022/09/05 07:17:06;;;;;;;2.70;2.50;;;33.80;50.70;;;;;;4971835;28;20448;-85
2022/09/05 07:19:38;;;;;;;3.23;2.90;;;33.30;51.50;;;;;;4972652;28;20476;-84
2022/09/05 07:22:31;;;;;;;2.93;2.63;;;34.00;50.60;;;;;;4999665;28;20446;-83
2022/09/05 07:25:27;;;;;;;2.70;2.50;;;33.60;50.20;;;;;;5019330;28;20446;-84
2022/09/05 07:28:13;;;;;;;4.03;2.57;;;34.80;48.50;;;;;;5019155;28;20489;-84
2022/09/05 07:31:01;;;;;;;3.27;2.67;;;35.00;47.40;;;;;;5018486;28;20518;-83
2022/09/05 07:33:30;;;;;;;5.53;2.83;;;35.00;47.60;;;;;;5013498;28;20453;-84
2022/09/05 07:36:31;;;;;;;2.83;2.57;;;35.40;46.80;;;;;;5015970;28;20549;-85
2022/09/05 07:39:20;;;;;;;2.47;2.27;;;35.70;46.00;;;;;;5015719;28;20478;-83
2022/09/05 07:41:59;;;;;;;5.60;2.90;;;35.40;45.70;;;;;;5016356;28;20466;-83
2022/09/05 07:44:30;;;;;;;3.10;2.90;;;34.90;46.70;;;;;;5013180;28;20465;-84
2022/09/05 07:47:19;;;;;;;2.77;2.37;;;35.10;46.30;;;;;;5014715;28;20470;-85
2022/09/05 07:49:47;;;;;;;3.17;2.60;;;35.00;46.10;;;;;;5028672;28;20435;-84
2022/09/05 07:52:26;;;;;;;2.03;1.93;;;34.60;46.40;;;;;;5011664;28;20872;-85
2022/09/05 07:55:26;;;;;;;2.93;2.63;;;34.50;46.70;;;;;;5013466;28;20485;-83
2022/09/05 07:58:18;;;;;;;3.87;2.23;;;34.40;46.60;;;;;;5012240;28;20469;-84
2022/09/05 08:00:51;;;;;;;2.57;2.37;;;34.40;46.30;;;;;;5014184;28;20542;-83
2022/09/05 08:03:24;;;;;;;2.50;2.30;;;34.90;46.10;;;;;;5014879;28;20496;-84
2022/09/05 08:05:56;;;;;;;3.63;2.23;;;34.70;46.40;;;;;;5013029;28;20454;-83
2022/09/05 08:08:28;;;;;;;2.30;2.10;;;35.00;45.20;;;;;;5026807;28;20477;-84
2022/09/05 08:11:02;;;;;;;2.47;2.27;;;35.40;44.70;;;;;;5012709;28;20476;-83
2022/09/05 08:14:24;;;;;;;6.30;2.37;;;35.70;44.00;;;;;;5024307;28;20445;-83
2022/09/05 08:17:15;;;;;;;2.70;2.50;;;35.80;43.90;;;;;;4965874;28;20450;-82
2022/09/05 08:20:05;;;;;;;2.40;2.20;;;35.80;43.20;;;;;;5026519;28;20465;-83
2022/09/05 08:23:03;;;;;;;2.83;2.10;;;35.60;44.10;;;;;;5011766;28;20458;-84
2022/09/05 08:25:34;;;;;;;4.43;2.00;;;35.80;43.20;;;;;;5011488;28;20461;-82
2022/09/05 08:28:05;;;;;;;2.70;2.50;;;35.70;43.10;;;;;;5010497;28;20510;-82
2022/09/05 08:30:43;;;;;;;2.30;2.10;;;35.60;43.60;;;;;;5012165;28;20470;-84
2022/09/05 08:33:34;;;;;;;3.33;2.30;;;36.70;42.10;;;;;;5026828;28;20456;-84
2022/09/05 08:36:40;;;;;;;2.50;2.30;;;36.80;41.10;;;;;;5012546;28;20537;-82
2022/09/05 08:39:10;;;;;;;2.23;2.03;;;36.60;41.70;;;;;;5014231;28;20474;-85
2022/09/05 08:42:11;;;;;;;2.20;2.00;;;37.10;41.10;;;;;;5015870;28;20465;-83
2022/09/05 08:45:03;;;;;;;2.10;1.90;;;37.30;39.90;;;;;;5026865;28;21246;-83
2022/09/05 08:48:25;;;;;;;2.10;2.00;;;37.50;39.40;;;;;;5014091;28;20583;-84
2022/09/05 08:51:14;;;;;;;3.83;2.30;;;36.80;40.20;;;;;;5015446;28;20478;-83
2022/09/05 08:54:16;;;;;;;2.50;2.23;;;36.90;40.20;;;;;;5015242;28;20442;-83
2022/09/05 08:56:56;;;;;;;2.23;2.03;;;36.80;40.10;;;;;;5016740;28;21255;-83
2022/09/05 08:59:41;;;;;;;3.23;2.00;;;37.10;39.40;;;;;;5016985;28;20572;-83
2022/09/05 09:02:54;;;;;;;2.37;2.17;;;37.10;39.40;;;;;;5013960;28;20784;-83
2022/09/05 09:05:44;;;;;;;1.87;1.77;;;36.70;39.50;;;;;;4998326;28;21216;-83
2022/09/05 09:08:57;;;;;;;2.20;1.90;;;37.00;39.20;;;;;;5015746;28;20485;-84
2022/09/05 09:11:40;;;;;;;2.37;1.93;;;37.20;38.10;;;;;;5014058;28;20457;-85
2022/09/05 09:14:35;;;;;;;2.40;2.20;;;36.60;38.70;;;;;;5014126;28;20446;-83
2022/09/05 09:20:06;;;;;;;2.53;2.30;;;34.70;41.10;;;;;;5039104;22;20531;-84
2022/09/05 09:22:42;;;;;;;2.17;1.97;;;34.70;41.30;;;;;;5034583;28;20504;-84
2022/09/05 09:25:41;;;;;;;9.07;3.00;;;35.00;40.90;;;;;;5034634;28;20478;-83
2022/09/05 09:28:37;;;;;;;2.43;2.20;;;35.20;41.00;;;;;;5013325;28;20486;-81
2022/09/05 09:31:53;;;;;;;2.20;1.90;;;35.70;40.10;;;;;;5006651;28;20857;-83
2022/09/05 09:34:28;;;;;;;2.17;1.97;;;36.20;38.70;;;;;;4944567;28;20475;-81
2022/09/05 09:37:08;;;;;;;1.80;1.70;;;36.00;38.80;;;;;;4998916;28;20557;-84
2022/09/05 09:39:49;;;;;;;1.50;1.40;;;36.20;37.90;;;;;;5009401;28;20488;-82
2022/09/05 09:42:44;;;;;;;1.57;1.47;;;36.10;36.60;;;;;;5008290;28;20450;-84
2022/09/05 09:45:33;;;;;;;1.50;1.40;;;36.20;36.60;;;;;;5002987;28;20445;-82
2022/09/05 09:48:09;;;;;;;1.93;1.83;;;36.00;36.20;;;;;;5017333;28;20485;-84
2022/09/05 09:50:58;;;;;;;1.60;1.50;;;35.90;36.10;;;;;;5022393;28;20462;-83
2022/09/05 09:53:56;;;;;;;5.00;1.73;;;36.30;36.20;;;;;;5022783;28;20561;-83
2022/09/05 09:56:54;;;;;;;1.33;1.23;;;35.30;36.90;;;;;;5014590;28;20444;-84
2022/09/05 09:59:46;;;;;;;1.70;1.60;;;36.30;34.90;;;;;;5014470;28;20480;-83
2022/09/05 10:02:42;;;;;;;1.87;1.60;;;36.90;33.80;;;;;;5015372;28;20423;-81
2022/09/05 10:05:38;;;;;;;1.60;1.50;;;36.40;32.80;;;;;;5026952;28;20438;-81
2022/09/05 10:08:34;;;;;;;1.60;1.50;;;36.10;32.20;;;;;;5016935;28;20473;-82
2022/09/05 10:11:25;;;;;;;1.63;1.40;;;36.70;32.40;;;;;;5022475;28;20454;-83
2022/09/05 10:14:46;;;;;;;1.40;1.30;;;36.20;32.30;;;;;;5017396;28;20453;-83
2022/09/05 10:17:31;;;;;;;1.80;1.20;;;35.80;33.70;;;;;;5021791;28;20462;-83
2022/09/05 10:20:36;;;;;;;3.57;2.10;;;35.70;33.50;;;;;;5031960;28;20500;-83
2022/09/05 10:23:43;;;;;;;1.80;1.70;;;36.60;32.60;;;;;;5029993;28;20471;-84
2022/09/05 10:26:35;;;;;;;1.90;1.60;;;37.30;31.70;;;;;;4993245;28;20458;-83
2022/09/05 10:29:48;;;;;;;2.43;2.00;;;36.60;32.10;;;;;;5026620;28;20482;-84
2022/09/05 10:32:40;;;;;;;2.07;1.97;;;36.70;31.20;;;;;;4993790;28;20518;-83
2022/09/05 10:35:34;;;;;;;1.67;1.57;;;36.30;31.90;;;;;;5013315;28;20446;-85
2022/09/05 10:38:17;;;;;;;2.50;2.13;;;36.50;31.60;;;;;;5012236;28;20518;-83
2022/09/05 10:40:49;;;;;;;3.20;1.90;;;36.40;31.90;;;;;;5008851;28;20418;-84
2022/09/05 10:44:01;;;;;;;2.10;1.90;;;36.60;31.80;;;;;;5009747;28;20510;-83
2022/09/05 10:46:54;;;;;;;3.23;1.87;;;36.30;32.10;;;;;;5024955;28;20451;-83
2022/09/05 10:49:26;;;;;;;2.40;1.70;;;35.60;32.80;;;;;;5010897;28;20473;-82
2022/09/05 10:52:01;;;;;;;3.30;1.60;;;36.30;31.80;;;;;;5024926;28;20462;-84
2022/09/05 10:54:38;;;;;;;1.30;1.20;;;36.80;31.90;;;;;;5024735;28;20454;-84
2022/09/05 10:57:23;;;;;;;2.13;1.97;;;36.90;31.00;;;;;;5036324;28;20442;-85
2022/09/05 10:59:55;;;;;;;2.20;1.57;;;36.30;31.60;;;;;;5023160;28;20478;-82
2022/09/05 11:02:45;;;;;;;2.33;1.67;;;36.00;31.70;;;;;;5020287;28;20509;-83
2022/09/05 11:05:25;;;;;;;2.20;1.83;;;35.20;32.80;;;;;;5009589;28;20533;-82
2022/09/05 11:08:07;;;;;;;2.37;2.17;;;35.60;32.50;;;;;;5007029;28;20784;-84
2022/09/05 11:10:53;;;;;;;4.30;1.27;;;36.40;31.70;;;;;;5027500;28;20419;-84
2022/09/05 11:13:48;;;;;;;1.60;1.50;;;36.20;31.00;;;;;;5036454;28;20455;-82
2022/09/05 11:16:39;;;;;;;1.67;1.37;;;35.40;32.10;;;;;;5035041;28;20452;-84
2022/09/05 11:19:28;;;;;;;2.57;2.00;;;34.70;32.70;;;;;;5031295;28;20454;-82
2022/09/05 11:22:06;;;;;;;2.40;1.50;;;35.30;32.80;;;;;;5014538;28;20451;-83
2022/09/05 11:24:54;;;;;;;1.33;1.23;;;35.60;31.90;;;;;;5007885;28;20497;-84
2022/09/05 11:27:42;;;;;;;2.13;1.93;;;35.30;32.70;;;;;;5007760;28;21911;-82
2022/09/05 11:30:18;;;;;;;1.73;1.13;;;35.10;32.30;;;;;;5005731;28;20451;-84
2022/09/05 11:33:14;;;;;;;1.83;1.47;;;35.30;32.80;;;;;;5007634;28;20446;-85
2022/09/05 11:36:23;;;;;;;1.53;1.20;;;36.20;31.90;;;;;;5009695;28;20433;-84
2022/09/05 11:39:19;;;;;;;1.57;1.47;;;35.70;31.70;;;;;;5008344;28;20450;-82
2022/09/05 11:42:34;;;;;;;1.67;1.57;;;35.90;32.00;;;;;;5020101;28;21083;-83
2022/09/05 11:45:13;;;;;;;1.60;1.50;;;35.70;32.20;;;;;;5008617;28;20458;-84
2022/09/05 11:48:27;;;;;;;2.50;1.10;;;36.30;30.50;;;;;;5022726;28;20486;-84
2022/09/05 11:51:10;;;;;;;1.13;1.10;;;36.30;30.40;;;;;;5009126;28;20557;-82
2022/09/05 11:54:02;;;;;;;1.10;1.10;;;36.30;30.00;;;;;;5010372;28;20458;-84
2022/09/05 11:56:42;;;;;;;1.10;1.10;;;36.10;30.30;;;;;;5014941;28;20476;-83
2022/09/05 11:59:30;;;;;;;1.70;1.30;;;36.00;30.20;;;;;;5022447;28;20784;-86
2022/09/05 12:02:25;;;;;;;1.27;1.20;;;35.70;30.30;;;;;;5021549;28;20443;-81
2022/09/05 12:05:24;;;;;;;1.20;1.20;;;35.80;30.20;;;;;;5006589;28;20530;-85
2022/09/05 12:08:35;;;;;;;1.40;1.30;;;36.50;29.70;;;;;;5012500;28;20478;-83
2022/09/05 12:11:34;;;;;;;1.77;1.33;;;35.50;30.50;;;;;;5004112;28;20442;-84
2022/09/05 12:14:31;;;;;;;2.90;1.33;;;35.30;30.70;;;;;;5013877;28;20418;-83
2022/09/05 12:17:26;;;;;;;1.30;1.20;;;34.80;31.40;;;;;;5020621;28;20454;-82
2022/09/05 12:20:10;;;;;;;3.43;1.30;;;34.60;31.60;;;;;;5000147;28;20454;-83
2022/09/05 12:23:01;;;;;;;2.10;1.40;;;34.60;31.50;;;;;;5009538;28;20577;-84
2022/09/05 12:25:32;;;;;;;1.30;1.23;;;35.40;31.30;;;;;;5000240;28;20455;-84
2022/09/05 12:28:30;;;;;;;1.30;1.20;;;36.60;29.80;;;;;;5016502;28;20497;-84
2022/09/05 12:31:22;;;;;;;1.07;1.07;;;36.30;29.70;;;;;;5003188;28;20454;-84
2022/09/05 12:34:17;;;;;;;1.30;1.20;;;35.60;30.00;;;;;;5001991;28;20446;-84
2022/09/05 12:37:10;;;;;;;1.67;1.53;;;34.90;30.80;;;;;;5019384;28;20494;-83
2022/09/05 12:40:08;;;;;;;1.40;1.30;;;35.50;30.70;;;;;;4997482;28;20437;-83
2022/09/05 12:43:04;;;;;;;2.70;1.30;;;36.00;29.50;;;;;;5008019;28;20966;-84
2022/09/05 12:46:00;;;;;;;4.83;4.50;;;35.20;30.10;;;;;;5022499;28;20935;-83
2022/09/05 12:48:52;;;;;;;1.50;1.40;;;34.80;30.60;;;;;;5022943;28;20477;-84
2022/09/05 12:51:22;;;;;;;2.00;1.40;;;34.90;30.70;;;;;;5018990;28;20484;-84
2022/09/05 12:54:49;;;;;;;1.70;1.60;;;35.60;30.00;;;;;;4995455;28;20435;-84
2022/09/05 12:57:32;;;;;;;1.70;1.60;;;35.80;30.00;;;;;;4993326;28;20881;-84
2022/09/05 13:00:21;;;;;;;2.67;2.00;;;36.00;29.70;;;;;;5009868;28;20537;-84
2022/09/05 13:03:20;;;;;;;1.70;1.60;;;35.60;29.80;;;;;;5010870;28;20430;-81
2022/09/05 13:06:01;;;;;;;1.50;1.40;;;35.00;30.80;;;;;;5007879;28;20515;-83
2022/09/05 13:08:42;;;;;;;1.50;1.40;;;35.90;29.90;;;;;;5023145;28;20525;-85
2022/09/05 13:11:11;;;;;;;2.50;1.73;;;36.10;29.30;;;;;;5024259;28;20453;-85
2022/09/05 13:14:06;;;;;;;2.23;1.70;;;35.80;29.40;;;;;;5023045;28;20466;-83
2022/09/05 13:16:55;;;;;;;1.53;1.43;;;35.40;30.00;;;;;;5009051;28;20489;-84
2022/09/05 13:19:49;;;;;;;4.90;2.20;;;35.30;30.00;;;;;;5003075;28;20505;-85
2022/09/05 13:22:21;;;;;;;1.90;1.40;;;35.80;29.80;;;;;;5006729;28;20453;-83
2022/09/05 13:25:15;;;;;;;1.53;1.43;;;36.00;29.50;;;;;;5000797;28;20844;-86
2022/09/05 13:27:55;;;;;;;1.83;1.40;;;36.10;30.40;;;;;;4998786;28;20577;-84
2022/09/05 13:30:24;;;;;;;2.13;1.43;;;36.70;29.20;;;;;;5028095;28;20442;-84
2022/09/05 13:33:39;;;;;;;3.70;1.43;;;36.60;29.10;;;;;;4991094;28;20439;-84
2022/09/05 13:36:29;;;;;;;1.53;1.40;;;36.30;28.80;;;;;;4993839;28;20466;-83
2022/09/05 13:39:26;;;;;;;1.50;1.40;;;35.90;29.40;;;;;;4994270;28;20516;-84
2022/09/05 13:41:58;;;;;;;1.30;1.20;;;36.00;29.20;;;;;;5007239;28;20449;-84
2022/09/05 13:44:28;;;;;;;1.47;1.33;;;35.40;29.40;;;;;;5008008;28;20439;-84
2022/09/05 13:47:08;;;;;;;1.37;1.27;;;35.10;29.70;;;;;;5005485;28;20445;-84
2022/09/05 13:50:19;;;;;;;3.10;1.50;;;35.70;29.00;;;;;;5013359;28;20459;-84
2022/09/05 13:52:51;;;;;;;1.63;1.17;;;35.70;29.00;;;;;;5011232;28;20474;-83
2022/09/05 13:55:28;;;;;;;1.53;1.43;;;35.50;29.10;;;;;;5011491;28;20478;-84
2022/09/05 13:58:13;;;;;;;1.67;1.57;;;35.10;29.30;;;;;;5023024;28;20463;-83
2022/09/05 14:00:53;;;;;;;3.23;1.50;;;34.70;29.70;;;;;;5022934;28;20441;-84
2022/09/05 14:04:20;;;;;;;1.30;1.20;;;34.90;29.30;;;;;;5015652;28;20460;-83
2022/09/05 14:07:28;;;;;;;1.50;1.40;;;34.80;29.30;;;;;;5017733;28;20785;-83
2022/09/05 14:10:46;;;;;;;2.13;1.43;;;34.90;29.40;;;;;;5025992;28;20460;-85
2022/09/05 14:13:17;;;;;;;1.30;1.20;;;34.40;29.80;;;;;;4998412;28;20543;-84
2022/09/05 14:16:12;;;;;;;1.57;1.40;;;34.40;29.70;;;;;;4985957;28;20474;-83
2022/09/05 14:21:32;;;;;;;1.43;1.33;;;34.80;28.90;;;;;;5030213;28;20454;-85
2022/09/05 14:24:02;;;;;;;1.80;1.70;;;35.00;28.50;;;;;;5001256;28;20446;-84
2022/09/05 14:26:44;;;;;;;2.50;1.50;;;34.70;28.60;;;;;;5007709;28;20445;-85
2022/09/05 14:29:23;;;;;;;1.60;1.50;;;34.50;28.90;;;;;;5008447;28;20482;-83
2022/09/05 14:32:09;;;;;;;1.40;1.30;;;34.40;28.90;;;;;;5012814;28;20462;-85
2022/09/05 14:35:22;;;;;;;2.77;2.07;;;34.30;29.00;;;;;;5011662;28;20426;-83
2022/09/05 14:38:27;;;;;;;3.97;1.50;;;34.30;28.00;;;;;;5011324;28;20549;-84
2022/09/05 14:41:27;;;;;;;1.70;1.60;;;33.70;28.30;;;;;;5031217;28;20474;-81
2022/09/05 14:44:15;;;;;;;1.73;1.20;;;33.50;28.20;;;;;;5017699;28;20473;-84
2022/09/05 14:46:54;;;;;;;1.10;1.00;;;33.40;28.20;;;;;;5030684;28;20423;-86
2022/09/05 14:49:59;;;;;;;2.37;2.27;;;33.40;28.60;;;;;;5022678;28;20489;-81